Time;durP1;ratioP1;P1;durP2;ratioP2;P2;SDS_P1;SDS_P2;PMS_P1;PMS_P2;Temp;Humidity;BMP_temperature;BMP_pressure;BME280_temperature;BME280_humidity;BME280_pressure;Samples;Min_cycle;Max_cycle;Signal;HPM_P1;HPM_P2
2023/08/08 07:01:30;;;;;;;5.63;0.73;;;16.10;99.90;17.30;101223.00;;;;6051482;22;4848140;-68
2023/08/08 07:04:04;;;;;;;1.50;1.20;;;15.80;99.90;17.60;101223.00;;;;6246853;22;20168;-68
2023/08/08 07:06:40;;;;;;;0.33;0.33;;;15.80;99.90;18.40;101227.00;;;;6246563;23;20149;-70
2023/08/08 07:09:23;;;;;;;6.40;1.23;;;15.90;99.90;18.00;101216.00;;;;6245840;23;20548;-70
2023/08/08 07:11:54;;;;;;;7.77;2.37;;;15.80;99.90;18.50;101215.00;;;;6247731;22;20268;-70
2023/08/08 07:14:32;;;;;;;3.00;0.50;;;15.90;99.90;17.80;101220.00;;;;6246201;23;20154;-70
2023/08/08 07:17:12;;;;;;;0.50;0.43;;;16.00;99.90;17.80;101229.00;;;;6221918;23;20154;-70
2023/08/08 07:19:46;;;;;;;2.90;1.57;;;15.80;99.90;18.10;101221.00;;;;6245791;23;20242;-70
2023/08/08 07:22:18;;;;;;;0.90;0.90;;;15.90;99.90;18.00;101215.00;;;;6246379;23;20142;-70
2023/08/08 07:24:50;;;;;;;0.20;0.20;;;15.80;99.90;18.00;101226.00;;;;6247497;22;20162;-70
2023/08/08 07:27:21;;;;;;;0.50;0.50;;;15.90;99.90;18.50;101226.00;;;;6246204;23;20144;-70
2023/08/08 07:29:55;;;;;;;0.90;0.90;;;15.90;99.90;18.20;101221.00;;;;6246047;23;20210;-71
2023/08/08 07:32:33;;;;;;;0.97;0.97;;;16.10;99.90;17.80;101219.00;;;;6220911;23;20235;-70
2023/08/08 07:35:10;;;;;;;0.40;0.40;;;16.00;99.90;18.40;101215.00;;;;6246213;23;20163;-71
2023/08/08 07:37:49;;;;;;;0.50;0.50;;;16.10;99.90;18.20;101215.00;;;;6245915;23;20161;-70
2023/08/08 07:40:29;;;;;;;1.50;1.40;;;16.10;99.90;17.80;101187.00;;;;6247752;22;20269;-70
2023/08/08 07:42:59;;;;;;;0.47;0.47;;;16.10;99.90;18.20;101157.00;;;;6220499;23;20158;-70
2023/08/08 07:45:30;;;;;;;1.23;1.10;;;16.20;99.90;18.00;101214.00;;;;6247626;22;20465;-70
2023/08/08 07:48:07;;;;;;;1.83;0.70;;;16.20;99.90;17.90;101212.00;;;;6245935;23;20155;-69
2023/08/08 07:50:41;;;;;;;1.30;1.00;;;16.30;99.90;18.40;101195.00;;;;6221086;23;20184;-70
2023/08/08 07:53:18;;;;;;;1.40;1.23;;;16.40;99.90;18.20;101142.00;;;;6245882;23;20181;-70
2023/08/08 07:55:49;;;;;;;0.20;0.20;;;16.40;99.90;18.20;101150.00;;;;6245762;23;20148;-70
2023/08/08 07:58:27;;;;;;;3.63;1.50;;;16.30;99.90;18.90;101211.00;;;;6245507;23;20600;-70
2023/08/08 08:01:01;;;;;;;1.07;1.03;;;16.40;99.90;19.00;101209.00;;;;6245320;23;20172;-70
2023/08/08 08:03:33;;;;;;;0.83;0.83;;;16.70;99.90;18.50;101203.00;;;;6247356;22;20146;-70
2023/08/08 08:06:04;;;;;;;1.23;0.80;;;16.50;99.90;18.80;101210.00;;;;6220607;23;20183;-70
2023/08/08 08:08:41;;;;;;;1.33;1.23;;;16.50;99.90;18.10;101178.00;;;;6245522;23;20147;-70
2023/08/08 08:11:16;;;;;;;2.37;1.80;;;16.40;99.90;18.80;101218.00;;;;6245904;23;20141;-70
2023/08/08 08:13:53;;;;;;;1.50;1.30;;;16.40;99.90;18.60;101215.00;;;;6245809;23;20170;-70
2023/08/08 08:16:26;;;;;;;1.30;1.20;;;16.60;99.90;18.20;101229.00;;;;6246927;22;20141;-70
2023/08/08 08:18:55;;;;;;;1.47;0.83;;;16.40;99.90;18.50;101219.00;;;;6220012;23;20579;-70
2023/08/08 08:21:21;;;;;;;9.40;2.07;;;16.50;99.90;18.90;101232.00;;;;6245289;23;20207;-70
2023/08/08 08:23:53;;;;;;;1.00;1.00;;;16.60;99.90;18.60;101227.00;;;;6245746;23;20161;-70
2023/08/08 08:26:27;;;;;;;2.13;1.70;;;16.60;99.90;18.50;101232.00;;;;6245240;23;20905;-70
2023/08/08 08:29:01;;;;;;;4.90;1.57;;;16.60;99.90;17.70;101206.00;;;;6220583;23;20210;-70
2023/08/08 08:31:33;;;;;;;0.20;0.20;;;16.30;99.90;19.00;101222.00;;;;6245211;23;20174;-70
2023/08/08 08:34:01;;;;;;;0.87;0.47;;;16.50;99.90;18.90;101223.00;;;;6247036;22;20593;-70
2023/08/08 08:36:33;;;;;;;0.27;0.27;;;16.80;99.90;19.10;101217.00;;;;6246859;22;20146;-70
2023/08/08 08:39:05;;;;;;;0.73;0.73;;;16.80;99.90;18.50;101222.00;;;;6246555;23;20574;-70
2023/08/08 08:41:39;;;;;;;1.83;1.53;;;16.50;99.90;19.30;101202.00;;;;6245332;23;20139;-69
2023/08/08 08:44:14;;;;;;;0.30;0.30;;;16.80;99.90;18.40;101224.00;;;;6220618;23;20164;-70
2023/08/08 08:46:52;;;;;;;0.80;0.73;;;16.60;99.90;18.60;101222.00;;;;6245396;23;20181;-70
2023/08/08 08:49:21;;;;;;;2.83;2.33;;;16.60;99.90;18.30;101222.00;;;;6244876;23;20613;-70
2023/08/08 08:51:57;;;;;;;0.67;0.67;;;16.60;99.90;19.00;101227.00;;;;6244560;23;20189;-70
2023/08/08 08:54:29;;;;;;;0.60;0.57;;;16.70;99.90;19.30;101226.00;;;;6245619;23;20218;-70
2023/08/08 08:57:01;;;;;;;0.20;0.20;;;17.00;99.90;19.60;101214.00;;;;6245265;23;20152;-70
2023/08/08 08:59:35;;;;;;;1.03;1.03;;;17.20;99.90;19.20;101227.00;;;;6246561;22;20591;-70
2023/08/08 09:02:08;;;;;;;1.13;1.07;;;17.20;99.90;18.80;101229.00;;;;6219933;23;20161;-70
2023/08/08 09:04:40;;;;;;;1.73;0.93;;;17.20;99.90;19.00;101238.00;;;;6245053;23;20178;-69
2023/08/08 09:07:17;;;;;;;18.37;1.80;;;17.30;99.90;18.90;101240.00;;;;6245189;23;20232;-70
2023/08/08 09:09:59;;;;;;;1.33;0.87;;;17.50;99.90;18.70;101256.00;;;;6245072;23;20160;-70
2023/08/08 09:12:25;;;;;;;2.63;0.97;;;17.30;99.90;20.20;101246.00;;;;6246463;22;20165;-70
2023/08/08 09:15:10;;;;;;;0.93;0.93;;;17.60;99.90;20.40;101240.00;;;;6219686;23;20604;-70
2023/08/08 09:17:48;;;;;;;1.70;1.05;;;17.80;99.90;19.60;101216.00;;;;6244260;23;20203;-69
2023/08/08 09:20:25;;;;;;;1.20;1.13;;;17.70;99.90;20.00;101238.00;;;;6244975;23;20152;-70
2023/08/08 09:23:07;;;;;;;3.17;2.13;;;17.80;99.90;20.10;101246.00;;;;6244858;23;20194;-70
2023/08/08 09:25:44;;;;;;;6.63;1.98;;;18.10;99.90;20.70;101270.00;;;;6246164;22;20143;-69
2023/08/08 09:28:10;;;;;;;0.68;0.68;;;18.50;99.90;19.50;101246.00;;;;6244486;23;20161;-70
2023/08/08 09:30:42;;;;;;;1.55;0.98;;;18.20;99.90;19.50;101255.00;;;;6244867;23;20165;-70
2023/08/08 09:33:17;;;;;;;1.85;1.20;;;18.10;99.90;20.40;101289.00;;;;6244810;23;20174;-69
2023/08/08 09:35:54;;;;;;;2.25;0.47;;;18.40;99.90;21.70;101310.00;;;;6245024;23;20228;-70
2023/08/08 09:38:29;;;;;;;3.00;0.73;;;18.90;99.90;21.70;101289.00;;;;6244861;23;20192;-70
2023/08/08 09:40:57;;;;;;;0.98;0.68;;;19.20;99.90;22.20;101283.00;;;;6219504;23;20199;-70
2023/08/08 09:43:34;;;;;;;0.13;0.13;;;19.80;99.90;23.30;101299.00;;;;6246492;22;20145;-70
2023/08/08 09:46:08;;;;;;;0.63;0.63;;;20.20;99.90;22.00;101287.00;;;;6245119;23;20444;-70
2023/08/08 09:48:43;;;;;;;0.65;0.35;;;19.90;99.90;23.60;101307.00;;;;6218725;23;20161;-70
2023/08/08 09:51:15;;;;;;;0.77;0.77;;;20.20;99.90;22.30;101345.00;;;;6244928;23;20229;-70
2023/08/08 09:53:50;;;;;;;2.90;0.65;;;20.30;99.90;21.50;101302.00;;;;6244670;23;20534;-70
2023/08/08 09:56:23;;;;;;;3.63;0.77;;;19.60;99.90;21.00;101313.00;;;;6219108;23;20466;-70
2023/08/08 09:58:49;;;;;;;1.98;0.98;;;19.40;99.90;22.20;101332.00;;;;6244273;23;20138;-70
2023/08/08 10:01:15;;;;;;;12.07;0.95;;;19.80;99.90;22.50;101367.00;;;;6244388;23;20215;-70
2023/08/08 10:03:57;;;;;;;0.70;0.22;;;20.10;99.90;22.00;101359.00;;;;6244556;23;20602;-70
2023/08/08 10:06:29;;;;;;;0.77;0.77;;;19.70;99.90;21.40;101365.00;;;;6244540;23;20579;-70
2023/08/08 10:09:01;;;;;;;1.15;1.10;;;19.50;99.90;22.40;101370.00;;;;6245862;22;20240;-70
2023/08/08 10:11:30;;;;;;;1.55;1.27;;;19.70;99.90;21.30;101337.00;;;;6244210;23;20516;-70
2023/08/08 10:14:05;;;;;;;1.80;1.00;;;19.40;99.90;21.50;101339.00;;;;6244006;23;20486;-70
2023/08/08 10:16:38;;;;;;;0.45;0.45;;;19.40;99.90;21.50;101359.00;;;;6244831;23;20173;-70
2023/08/08 10:19:07;;;;;;;0.40;0.40;;;19.30;99.90;22.90;101340.00;;;;6218276;23;20161;-70
2023/08/08 10:33:49;;;;;;;0.30;0.30;;;18.40;99.90;21.30;101312.00;;;;5138625;27;20626;-70
2023/08/08 10:36:18;;;;;;;0.22;0.22;;;18.70;99.90;20.60;101299.00;;;;5149517;27;20697;-70
2023/08/08 10:38:58;;;;;;;0.30;0.30;;;18.60;99.90;21.00;101280.00;;;;5133204;27;20182;-70
2023/08/08 10:41:30;;;;;;;0.30;0.30;;;18.60;99.90;21.20;101259.00;;;;5133858;27;20193;-70
2023/08/08 10:43:59;;;;;;;4.33;1.30;;;18.70;99.90;21.40;101323.00;;;;5146656;27;20189;-70
2023/08/08 10:46:35;;;;;;;0.73;0.73;;;18.70;99.90;20.60;101311.00;;;;5151343;27;20270;-70
2023/08/08 10:49:06;;;;;;;6.63;0.95;;;18.50;99.90;21.30;101245.00;;;;5133450;27;20185;-70
2023/08/08 10:51:48;;;;;;;2.83;1.27;;;18.60;99.90;21.40;101293.00;;;;5138034;27;20580;-70
2023/08/08 10:54:33;;;;;;;0.10;0.10;;;18.80;99.90;21.80;101315.00;;;;5123145;27;20293;-70
2023/08/08 10:57:02;;;;;;;1.10;1.00;;;18.90;99.90;20.80;101328.00;;;;5143378;27;20186;-70
2023/08/08 10:59:39;;;;;;;1.50;0.90;;;18.90;99.90;21.40;101314.00;;;;5118364;28;20175;-70
2023/08/08 11:02:16;;;;;;;0.25;0.25;;;19.20;99.90;22.60;101320.00;;;;5149206;27;20659;-70
2023/08/08 11:04:49;;;;;;;1.52;1.10;;;19.70;99.90;23.80;101352.00;;;;5151325;27;20587;-70
2023/08/08 11:07:18;;;;;;;0.80;0.75;;;20.60;99.90;23.10;101367.00;;;;5141936;27;20684;-70
2023/08/08 11:09:44;;;;;;;2.70;0.88;;;20.60;99.90;21.70;101348.00;;;;5151051;27;20242;-70
2023/08/08 11:12:16;;;;;;;1.02;0.98;;;19.90;99.90;21.40;101363.00;;;;5151433;27;20237;-70
2023/08/08 11:14:45;;;;;;;0.15;0.15;;;19.50;99.90;20.90;101300.00;;;;5132676;27;20637;-69
2023/08/08 11:17:12;;;;;;;2.80;1.33;;;19.00;99.90;21.30;101339.00;;;;5123500;27;20189;-70
2023/08/08 11:19:47;;;;;;;2.75;1.23;;;18.90;99.90;20.70;101341.00;;;;5130366;27;20183;-70
2023/08/08 11:22:13;;;;;;;1.08;0.98;;;18.70;99.90;20.30;101305.00;;;;5133007;27;20243;-70
2023/08/08 11:24:39;;;;;;;0.90;0.90;;;18.40;99.90;20.60;101252.00;;;;5143389;27;20282;-70
2023/08/08 11:27:10;;;;;;;1.48;1.20;;;18.40;99.90;20.50;101307.00;;;;5143126;27;20179;-70
2023/08/08 11:29:51;;;;;;;4.35;1.02;;;18.40;99.90;20.50;101317.00;;;;5121235;27;20179;-70
2023/08/08 11:32:20;;;;;;;0.10;0.10;;;18.40;99.90;21.50;101306.00;;;;5132491;27;20323;-70
2023/08/08 11:34:47;;;;;;;0.60;0.55;;;18.70;99.90;22.90;101342.00;;;;5132122;27;20245;-70
2023/08/08 11:37:16;;;;;;;0.45;0.45;;;19.60;99.90;21.40;101335.00;;;;5132710;27;20178;-70
2023/08/08 11:39:45;;;;;;;3.95;2.00;;;19.30;99.90;22.60;101346.00;;;;5132104;27;20187;-70
2023/08/08 11:42:14;;;;;;;0.50;0.43;;;19.70;99.90;22.20;101357.00;;;;5132336;27;20262;-70
2023/08/08 11:44:50;;;;;;;0.10;0.10;;;19.60;99.90;23.40;101345.00;;;;5119170;27;20180;-70
2023/08/08 11:47:16;;;;;;;0.20;0.20;;;19.90;99.90;24.40;101394.00;;;;5123378;27;20183;-70
2023/08/08 11:49:55;;;;;;;0.95;0.95;;;21.00;99.90;24.40;101356.00;;;;5137008;27;20176;-70
2023/08/08 11:52:28;;;;;;;0.50;0.50;;;21.10;99.90;26.10;101374.00;;;;5118109;27;20627;-70
2023/08/08 11:55:00;;;;;;;1.75;1.25;;;22.20;99.90;23.20;101448.00;;;;5118372;27;20564;-70
2023/08/08 11:57:43;;;;;;;0.28;0.28;;;21.50;99.90;22.10;101406.00;;;;5136625;27;20175;-70
2023/08/08 12:00:14;;;;;;;3.38;1.35;;;20.10;99.90;21.50;101338.00;;;;5118302;27;20183;-70
2023/08/08 12:02:46;;;;;;;0.98;0.88;;;19.60;99.90;20.80;101258.00;;;;5136452;27;20660;-70
2023/08/08 12:05:21;;;;;;;5.10;1.52;;;19.00;99.90;21.00;101324.00;;;;5112631;27;20179;-70
2023/08/08 12:07:48;;;;;;;1.08;0.52;;;19.00;99.90;21.80;101318.00;;;;5111846;27;20219;-70
2023/08/08 12:10:21;;;;;;;2.25;1.08;;;19.30;99.90;21.60;101312.00;;;;5101399;27;20645;-70
2023/08/08 12:13:00;;;;;;;1.00;1.00;;;19.30;99.90;22.10;101333.00;;;;5117648;27;20290;-70
2023/08/08 12:15:38;;;;;;;0.50;0.50;;;19.80;99.90;24.20;101355.00;;;;5119015;27;20183;-70
2023/08/08 12:18:17;;;;;;;0.20;0.20;;;20.50;99.90;25.40;101380.00;;;;5108019;27;20187;-70
2023/08/08 12:20:54;;;;;;;3.75;1.20;;;21.40;99.90;24.40;101392.00;;;;5133188;27;20273;-70
2023/08/08 12:23:22;;;;;;;0.55;0.55;;;21.30;99.90;22.90;101400.00;;;;5116718;27;20193;-70
2023/08/08 12:26:00;;;;;;;0.10;0.10;;;20.80;99.90;25.30;101371.00;;;;5136098;27;20638;-70
2023/08/08 12:28:32;;;;;;;1.15;0.70;;;21.30;99.90;23.20;101394.00;;;;5100382;27;20171;-70
2023/08/08 12:31:01;;;;;;;1.48;1.38;;;21.00;99.90;22.20;101381.00;;;;5098929;28;20188;-70
2023/08/08 12:33:30;;;;;;;0.60;0.60;;;20.20;99.90;24.40;101356.00;;;;5117614;27;20543;-70
2023/08/08 12:36:02;;;;;;;3.83;1.52;;;20.70;99.90;24.10;101348.00;;;;5117109;27;20210;-70
2023/08/08 12:38:33;;;;;;;1.15;1.05;;;21.20;99.90;23.60;101382.00;;;;5135642;27;20184;-70
2023/08/08 12:41:04;;;;;;;1.83;1.25;;;21.10;99.90;23.70;101314.00;;;;5135485;27;20667;-70
2023/08/08 12:43:40;;;;;;;1.00;0.82;;;20.90;99.90;24.40;101366.00;;;;5135299;27;20730;-70
2023/08/08 12:46:09;;;;;;;1.45;1.35;;;21.30;99.90;23.00;101398.00;;;;5126429;27;20228;-70
2023/08/08 12:48:40;;;;;;;0.73;0.73;;;20.80;99.90;24.80;101377.00;;;;5108791;27;20191;-70
2023/08/08 12:51:18;;;;;;;0.93;0.93;;;21.10;99.90;24.10;101388.00;;;;5115242;27;20190;-70
2023/08/08 12:53:44;;;;;;;2.95;1.63;;;21.40;99.90;23.40;101400.00;;;;5134297;27;20825;-70
2023/08/08 12:56:16;;;;;;;0.82;0.82;;;21.00;99.90;23.20;101376.00;;;;5134286;27;20547;-70
2023/08/08 12:58:50;;;;;;;1.27;0.85;;;20.60;99.90;22.50;101387.00;;;;5117002;27;20193;-70
2023/08/08 13:01:21;;;;;;;0.40;0.40;;;20.40;99.90;25.20;101376.00;;;;5117401;27;20183;-70
2023/08/08 13:03:58;;;;;;;2.30;1.30;;;21.10;99.90;24.50;101388.00;;;;5116644;27;20183;-70
2023/08/08 13:06:27;;;;;;;0.95;0.75;;;21.60;99.90;23.40;101405.00;;;;5135313;27;20207;-70
2023/08/08 13:08:58;;;;;;;1.65;0.57;;;21.20;99.90;23.50;101420.00;;;;5135126;27;20191;-70
2023/08/08 13:11:33;;;;;;;1.05;0.77;;;21.00;99.90;23.50;101411.00;;;;5114693;27;20210;-70
2023/08/08 13:14:01;;;;;;;0.10;0.10;;;20.80;99.90;24.60;101411.00;;;;5123545;27;20175;-70
2023/08/08 13:16:35;;;;;;;0.55;0.55;;;21.00;99.90;24.40;101406.00;;;;5102918;27;20656;-70
2023/08/08 13:19:11;;;;;;;1.00;0.70;;;21.50;99.90;23.50;101402.00;;;;5106956;27;20178;-70
2023/08/08 13:21:45;;;;;;;2.03;0.65;;;21.10;99.90;23.30;101421.00;;;;5116151;27;20212;-70
2023/08/08 13:24:17;;;;;;;5.30;0.40;;;20.90;99.90;23.30;101415.00;;;;5116389;27;20593;-70
2023/08/08 13:26:49;;;;;;;0.40;0.40;;;20.70;99.90;23.50;101425.00;;;;5116693;27;20195;-70
2023/08/08 13:29:15;;;;;;;1.65;0.50;;;20.80;99.90;22.90;101440.00;;;;5107704;27;20267;-70
2023/08/08 13:31:46;;;;;;;0.32;0.30;;;20.70;99.90;23.10;101438.00;;;;5116531;27;20207;-70
2023/08/08 13:34:18;;;;;;;1.55;0.77;;;20.60;99.90;24.20;101431.00;;;;5112873;28;20229;-70
2023/08/08 13:36:52;;;;;;;0.13;0.13;;;21.10;99.90;23.90;101424.00;;;;5125979;27;20218;-69
2023/08/08 13:39:27;;;;;;;0.43;0.30;;;21.00;99.90;23.10;101404.00;;;;5134328;27;20589;-70
2023/08/08 13:41:56;;;;;;;0.52;0.50;;;20.90;99.90;22.90;101416.00;;;;5112374;27;20258;-70
2023/08/08 13:44:32;;;;;;;0.28;0.28;;;20.60;99.90;23.30;101419.00;;;;5098854;27;20180;-70
2023/08/08 13:47:09;;;;;;;0.50;0.50;;;20.50;99.90;23.00;101395.00;;;;5114688;27;20629;-70
2023/08/08 13:49:38;;;;;;;1.25;0.63;;;20.60;99.90;23.80;101398.00;;;;5105773;27;20184;-70
2023/08/08 13:52:04;;;;;;;0.30;0.30;;;20.90;99.90;23.70;101404.00;;;;5115353;27;20198;-70
2023/08/08 13:54:41;;;;;;;1.42;1.33;;;21.00;99.90;23.90;101419.00;;;;5114932;27;20262;-70
2023/08/08 13:57:15;;;;;;;0.35;0.32;;;21.00;99.90;23.20;101409.00;;;;5134283;27;20199;-70
2023/08/08 13:59:47;;;;;;;0.40;0.40;;;20.80;99.90;23.70;101412.00;;;;5108659;27;20195;-70
2023/08/08 14:02:24;;;;;;;0.20;0.20;;;21.00;99.90;22.90;101417.00;;;;5124944;27;20671;-70
2023/08/08 14:04:55;;;;;;;0.32;0.32;;;20.70;99.90;23.00;101428.00;;;;5133876;27;20210;-70
2023/08/08 14:07:29;;;;;;;1.10;0.55;;;20.40;99.90;22.40;101415.00;;;;5115667;27;20179;-70
2023/08/08 14:10:04;;;;;;;0.40;0.40;;;20.20;99.90;22.40;101409.00;;;;5103252;27;20659;-69
2023/08/08 14:12:38;;;;;;;0.22;0.22;;;20.10;99.90;22.80;101337.00;;;;5105941;27;20210;-70
2023/08/08 14:15:17;;;;;;;0.65;0.65;;;20.20;99.90;22.80;101408.00;;;;5116223;27;20175;-70
2023/08/08 14:17:57;;;;;;;0.10;0.10;;;20.30;99.90;23.80;101396.00;;;;5147521;27;20540;-70
2023/08/08 14:20:34;;;;;;;0.93;0.60;;;20.40;99.90;23.30;101402.00;;;;5132947;27;20248;-69
2023/08/08 14:23:03;;;;;;;0.93;0.75;;;20.50;99.90;23.00;101377.00;;;;5090476;28;20542;-70
2023/08/08 14:25:41;;;;;;;2.13;0.55;;;20.40;99.90;23.70;101375.00;;;;5115393;27;20179;-70
2023/08/08 14:28:21;;;;;;;0.43;0.32;;;20.50;99.90;22.80;101366.00;;;;5115879;28;20243;-70
2023/08/08 14:30:49;;;;;;;1.83;0.50;;;20.30;99.90;23.50;101309.00;;;;5133745;28;20179;-70
2023/08/08 14:33:23;;;;;;;0.93;0.73;;;20.60;99.90;22.90;101359.00;;;;5134198;28;20706;-69
2023/08/08 14:35:55;;;;;;;0.85;0.65;;;20.40;99.90;23.40;101339.00;;;;5133882;28;20194;-69
2023/08/08 14:38:36;;;;;;;0.50;0.50;;;20.50;99.90;22.40;101327.00;;;;5115605;28;20183;-69
2023/08/08 14:41:13;;;;;;;0.70;0.70;;;20.20;99.90;22.30;101311.00;;;;5122846;28;20211;-69
2023/08/08 14:43:47;;;;;;;0.55;0.55;;;20.10;99.90;21.60;101296.00;;;;5115547;28;20182;-69
2023/08/08 14:46:21;;;;;;;0.45;0.45;;;19.90;99.90;22.00;101294.00;;;;5115787;28;20644;-69
2023/08/08 14:48:58;;;;;;;0.50;0.50;;;19.80;99.90;22.90;101298.00;;;;5115784;28;20210;-70
2023/08/08 14:51:29;;;;;;;0.70;0.70;;;20.00;99.90;22.10;101316.00;;;;5123694;28;20175;-70
2023/08/08 14:54:01;;;;;;;1.55;0.90;;;20.10;99.90;22.40;101290.00;;;;5115047;28;20548;-69
2023/08/08 14:56:30;;;;;;;0.65;0.65;;;19.90;99.90;22.70;101285.00;;;;5115605;28;20612;-70
2023/08/08 14:59:04;;;;;;;0.75;0.75;;;20.00;99.90;23.50;101317.00;;;;5112918;27;20183;-69
2023/08/08 15:01:35;;;;;;;0.70;0.70;;;20.40;99.90;23.20;101334.00;;;;5106458;28;20195;-70
2023/08/08 15:04:10;;;;;;;0.28;0.28;;;20.40;99.90;22.70;101306.00;;;;5115083;28;20184;-70
2023/08/08 15:06:49;;;;;;;4.38;1.08;;;20.20;99.90;22.20;101298.00;;;;5133627;28;20240;-69
2023/08/08 15:09:21;;;;;;;2.80;0.57;;;19.80;99.90;22.00;101302.00;;;;5115040;28;20233;-69
2023/08/08 15:11:52;;;;;;;0.25;0.25;;;19.60;99.90;21.40;101279.00;;;;5132917;28;20200;-69
2023/08/08 15:14:29;;;;;;;0.38;0.38;;;19.30;99.90;21.10;101283.00;;;;5096437;28;20203;-69
2023/08/08 15:17:02;;;;;;;1.40;0.80;;;19.10;99.90;21.20;101243.00;;;;5116091;28;20629;-69
2023/08/08 15:19:42;;;;;;;0.40;0.40;;;19.00;99.90;20.60;101274.00;;;;5136050;27;20179;-69
2023/08/08 15:22:17;;;;;;;0.45;0.40;;;18.80;99.90;20.80;101268.00;;;;5102234;27;20175;-70
2023/08/08 15:24:52;;;;;;;0.60;0.52;;;18.60;99.90;21.40;101274.00;;;;5118855;27;20223;-69
2023/08/08 15:27:26;;;;;;;1.00;0.90;;;18.80;99.90;21.10;101278.00;;;;5137330;27;20191;-70
2023/08/08 15:29:57;;;;;;;0.65;0.65;;;18.70;99.90;21.10;101271.00;;;;5137039;27;20278;-69
2023/08/08 15:32:26;;;;;;;0.10;0.10;;;18.80;99.90;20.90;101274.00;;;;5106744;27;20247;-69
2023/08/08 15:35:03;;;;;;;0.47;0.47;;;18.70;99.90;21.40;101286.00;;;;5117774;27;20418;-69
2023/08/08 15:37:39;;;;;;;0.15;0.15;;;18.90;99.90;21.70;101286.00;;;;5137369;27;20183;-70
2023/08/08 15:40:13;;;;;;;0.20;0.20;;;19.00;99.90;22.50;101295.00;;;;5113822;28;20176;-69
2023/08/08 15:42:50;;;;;;;0.38;0.38;;;19.20;99.90;21.50;101278.00;;;;5101715;27;20182;-70
2023/08/08 15:45:27;;;;;;;0.65;0.40;;;19.20;99.90;21.10;101261.00;;;;5135225;27;20183;-69
2023/08/08 15:48:01;;;;;;;0.30;0.30;;;19.00;99.90;21.10;101271.00;;;;5118906;27;20187;-70
2023/08/08 15:50:32;;;;;;;0.55;0.55;;;19.00;99.90;21.10;101277.00;;;;5148517;27;20186;-70
2023/08/08 15:53:07;;;;;;;0.50;0.50;;;18.80;99.90;21.60;101287.00;;;;5136647;27;20209;-69
2023/08/08 15:55:45;;;;;;;0.98;0.93;;;18.90;99.90;21.00;101282.00;;;;5136822;27;20647;-70
2023/08/08 15:58:13;;;;;;;0.73;0.73;;;18.90;99.90;21.50;101267.00;;;;5136737;27;20182;-69
2023/08/08 16:00:42;;;;;;;0.63;0.63;;;18.80;99.90;21.90;101277.00;;;;5118242;27;20182;-70
2023/08/08 16:03:16;;;;;;;0.60;0.57;;;19.00;99.90;20.70;101262.00;;;;5117995;27;20603;-69
2023/08/08 16:05:47;;;;;;;1.17;0.65;;;18.70;99.90;21.40;101266.00;;;;5117538;27;20186;-70
2023/08/08 16:08:17;;;;;;;0.55;0.55;;;18.70;99.90;21.40;101250.00;;;;5135095;27;20179;-69
2023/08/08 16:10:47;;;;;;;0.60;0.60;;;18.70;99.90;20.60;101248.00;;;;5117746;27;20564;-70
2023/08/08 16:13:13;;;;;;;0.88;0.88;;;18.40;99.90;20.40;101231.00;;;;5108749;27;20210;-70
2023/08/08 16:15:49;;;;;;;0.32;0.32;;;18.20;99.90;19.80;101238.00;;;;5125658;27;20590;-70
2023/08/08 16:18:21;;;;;;;0.20;0.20;;;17.90;99.90;21.00;101210.00;;;;5118153;27;20210;-70
2023/08/08 16:20:52;;;;;;;0.50;0.50;;;18.10;99.90;21.30;101231.00;;;;5135954;27;20198;-70
2023/08/08 16:23:23;;;;;;;0.70;0.70;;;18.40;99.90;20.10;101221.00;;;;5117717;27;20201;-70
2023/08/08 16:26:03;;;;;;;0.50;0.50;;;18.10;99.90;20.40;101227.00;;;;5136417;27;20185;-70
2023/08/08 16:28:48;;;;;;;0.77;0.77;;;18.10;99.90;20.20;101215.00;;;;5117757;27;20585;-70
2023/08/08 16:31:19;;;;;;;0.83;0.83;;;17.90;99.90;19.30;101170.00;;;;5100341;27;20675;-69
2023/08/08 16:33:51;;;;;;;1.53;1.43;;;17.70;99.90;20.30;101209.00;;;;5117943;27;20189;-70
2023/08/08 16:36:25;;;;;;;0.23;0.23;;;17.80;99.90;21.20;101152.00;;;;5125148;27;20200;-70
2023/08/08 16:38:54;;;;;;;0.73;0.73;;;18.10;99.90;19.90;101201.00;;;;5126296;27;20191;-70
2023/08/08 16:41:31;;;;;;;0.57;0.57;;;18.00;99.90;19.80;101192.00;;;;5135748;27;20222;-70
2023/08/08 16:44:08;;;;;;;0.87;0.87;;;17.90;99.90;20.00;101196.00;;;;5117350;27;20190;-70
2023/08/08 16:46:40;;;;;;;0.27;0.27;;;17.70;99.90;19.00;101210.00;;;;5109210;27;20276;-70
2023/08/08 16:49:17;;;;;;;0.80;0.80;;;17.40;99.90;19.10;101221.00;;;;5121661;27;20238;-70
2023/08/08 16:51:51;;;;;;;0.87;0.73;;;17.20;99.90;19.10;101223.00;;;;5117099;27;20200;-70
2023/08/08 16:54:28;;;;;;;0.40;0.40;;;17.10;99.90;19.40;101233.00;;;;5133609;27;20252;-70
2023/08/08 16:57:08;;;;;;;1.83;1.73;;;17.10;99.90;19.30;101223.00;;;;5108864;27;20195;-70
2023/08/08 16:59:44;;;;;;;1.03;0.97;;;17.00;99.90;20.00;101224.00;;;;5124145;27;20244;-70
2023/08/08 17:02:13;;;;;;;1.37;1.27;;;17.20;99.90;20.20;101221.00;;;;5130730;27;20185;-70
2023/08/08 17:04:51;;;;;;;5.43;1.70;;;17.40;99.90;20.30;101199.00;;;;5135103;27;20180;-70
2023/08/08 17:07:24;;;;;;;0.30;0.30;;;17.50;99.90;18.90;101212.00;;;;5135027;27;20182;-70
2023/08/08 17:09:56;;;;;;;0.20;0.20;;;17.10;99.90;20.10;101210.00;;;;5134159;27;20185;-70
2023/08/08 17:12:25;;;;;;;0.20;0.20;;;17.40;99.90;20.00;101182.00;;;;5107820;27;20609;-70
2023/08/08 17:14:59;;;;;;;0.80;0.80;;;17.40;99.90;19.40;101193.00;;;;5111354;27;20623;-70
2023/08/08 17:17:30;;;;;;;0.20;0.20;;;17.20;99.90;20.00;101189.00;;;;5134733;27;20245;-70
2023/08/08 17:20:05;;;;;;;0.67;0.53;;;17.30;99.90;19.30;101181.00;;;;5134321;27;20187;-70
2023/08/08 17:22:33;;;;;;;0.50;0.50;;;17.30;99.90;19.80;101120.00;;;;5108502;27;20279;-70
2023/08/08 17:25:05;;;;;;;0.20;0.20;;;17.20;99.90;19.90;101179.00;;;;5133585;27;20189;-70
2023/08/08 17:27:35;;;;;;;0.20;0.20;;;17.20;99.90;18.70;101111.00;;;;5134903;27;20189;-70
2023/08/08 17:30:12;;;;;;;11.33;1.50;;;16.90;99.90;18.10;101180.00;;;;5109144;27;20176;-70
2023/08/08 17:32:41;;;;;;;0.87;0.67;;;16.60;99.90;18.80;101181.00;;;;5134764;27;20221;-70
2023/08/08 17:35:17;;;;;;;0.77;0.77;;;16.60;99.90;19.10;101188.00;;;;5116728;27;20303;-71
2023/08/08 17:37:58;;;;;;;0.33;0.33;;;16.70;99.90;18.90;101186.00;;;;5136498;27;20243;-70
2023/08/08 17:40:34;;;;;;;0.30;0.30;;;16.60;99.90;20.10;101164.00;;;;5139107;27;20185;-71
2023/08/08 17:43:03;;;;;;;0.20;0.20;;;17.10;99.90;20.30;101151.00;;;;5106841;27;20186;-70
2023/08/08 17:45:37;;;;;;;0.30;0.30;;;17.20;99.90;19.90;101136.00;;;;5133395;27;20571;-70
2023/08/08 17:48:12;;;;;;;1.00;0.97;;;17.40;99.90;19.90;101152.00;;;;5116144;27;20177;-70
2023/08/08 17:50:43;;;;;;;0.20;0.20;;;17.30;99.90;18.80;101162.00;;;;5134775;27;20189;-70
2023/08/08 17:53:09;;;;;;;0.20;0.20;;;16.90;99.90;20.20;101149.00;;;;5128317;27;20601;-70
2023/08/08 17:55:45;;;;;;;0.60;0.60;;;17.10;99.90;19.60;101137.00;;;;5133714;27;20181;-70
2023/08/08 17:58:12;;;;;;;0.30;0.30;;;17.20;99.90;19.50;101145.00;;;;5106174;27;20676;-70
2023/08/08 18:00:43;;;;;;;0.20;0.20;;;17.10;99.90;19.90;101131.00;;;;5134450;27;20241;-70
2023/08/08 18:03:14;;;;;;;0.30;0.30;;;17.10;99.90;20.50;101129.00;;;;5115670;27;20232;-71
2023/08/08 18:05:53;;;;;;;0.57;0.57;;;17.50;99.90;21.10;101133.00;;;;5134465;27;20185;-70
2023/08/08 18:08:22;;;;;;;0.40;0.40;;;17.70;99.90;21.00;101133.00;;;;5133784;27;20192;-71
2023/08/08 18:10:58;;;;;;;0.60;0.60;;;17.80;99.90;19.50;101148.00;;;;5133014;27;20189;-70
2023/08/08 18:13:25;;;;;;;0.30;0.30;;;17.30;99.90;20.00;101137.00;;;;5108849;27;20612;-71
2023/08/08 18:15:54;;;;;;;1.33;1.10;;;17.20;99.90;19.60;101137.00;;;;5128658;27;20180;-71
2023/08/08 18:18:25;;;;;;;0.27;0.27;;;17.10;99.90;18.60;101141.00;;;;5115068;27;20198;-71
2023/08/08 18:21:00;;;;;;;0.57;0.57;;;16.80;99.90;19.20;101090.00;;;;5116233;27;20207;-71
2023/08/08 18:23:29;;;;;;;0.73;0.73;;;16.70;99.90;18.40;101103.00;;;;5099048;28;20195;-70
2023/08/08 18:25:55;;;;;;;3.63;1.57;;;16.50;99.90;18.20;101180.00;;;;5110883;27;20187;-70